createdAt,value
2022-10-09T04:04:16.168Z,4.05
2022-10-09T04:06:42.877Z,5.00
2022-10-09T04:09:09.526Z,7.10
2022-10-09T04:11:36.049Z,3.58
2022-10-09T04:14:02.665Z,3.45
2022-10-09T04:16:29.253Z,4.28
2022-10-09T04:18:55.774Z,4.18
2022-10-09T04:21:22.298Z,3.85
2022-10-09T04:23:48.748Z,4.57
2022-10-09T04:26:15.196Z,5.45
2022-10-09T04:28:41.740Z,5.43
2022-10-09T04:31:08.386Z,5.60
2022-10-09T04:33:35.016Z,5.00
2022-10-09T04:36:01.500Z,5.70
2022-10-09T04:38:28.001Z,3.83
2022-10-09T04:41:06.221Z,4.30
2022-10-09T04:43:34.479Z,5.07
2022-10-09T04:46:08.421Z,3.33
2022-10-09T04:48:43.184Z,3.30
2022-10-09T04:51:10.418Z,5.03
2022-10-09T04:53:37.878Z,3.15
2022-10-09T04:56:06.807Z,6.85
2022-10-09T04:58:35.239Z,6.93
2022-10-09T05:01:19.642Z,3.67
2022-10-09T05:03:46.216Z,5.20
2022-10-09T05:06:13.975Z,5.28
2022-10-09T05:08:42.275Z,5.50
2022-10-09T05:11:11.810Z,4.05
2022-10-09T05:13:40.428Z,2.88
2022-10-09T05:16:10.096Z,3.65
2022-10-09T05:18:44.785Z,5.38
2022-10-09T05:21:11.586Z,3.72
2022-10-09T05:23:38.116Z,5.35
2022-10-09T05:26:07.428Z,6.00
2022-10-09T05:28:35.483Z,4.53
2022-10-09T05:31:07.242Z,3.17
2022-10-09T05:33:34.470Z,4.32
2022-10-09T05:36:03.405Z,5.05
2022-10-09T05:38:30.691Z,4.47
2022-10-09T05:41:00.925Z,5.43
2022-10-09T05:43:30.295Z,3.72
2022-10-09T05:46:24.560Z,5.30
2022-10-09T05:48:54.214Z,3.58
2022-10-09T05:51:29.644Z,4.20
2022-10-09T05:56:28.730Z,3.05
2022-10-09T05:58:56.608Z,5.05
2022-10-09T06:01:25.952Z,3.75
2022-10-09T06:03:55.436Z,5.13
2022-10-09T06:06:24.354Z,5.07
2022-10-09T06:08:51.194Z,5.38
2022-10-09T06:11:23.854Z,6.68
2022-10-09T06:13:51.426Z,3.75
2022-10-09T06:16:18.935Z,5.88
2022-10-09T06:18:49.314Z,4.72
2022-10-09T06:21:16.992Z,4.47
2022-10-09T06:23:43.713Z,5.63
2022-10-09T06:26:12.641Z,7.00
2022-10-09T06:28:40.443Z,7.15
2022-10-09T06:31:12.979Z,5.25
2022-10-09T06:33:41.094Z,5.03
2022-10-09T06:36:14.529Z,6.07
2022-10-09T06:38:41.930Z,6.38
2022-10-09T06:41:11.755Z,5.63
2022-10-09T06:43:39.452Z,5.28
2022-10-09T06:46:09.436Z,7.85
2022-10-09T06:48:38.403Z,4.32
2022-10-09T06:51:07.635Z,4.20
2022-10-09T06:53:38.700Z,5.05
2022-10-09T06:56:06.242Z,4.32
2022-10-09T06:58:32.728Z,6.82
2022-10-09T07:01:11.209Z,4.60
2022-10-09T07:03:39.726Z,4.60
2022-10-09T07:06:18.061Z,5.90
2022-10-09T07:08:50.032Z,4.85
2022-10-09T07:11:23.013Z,4.85
2022-10-09T07:13:52.020Z,6.35
2022-10-09T07:16:21.717Z,5.95
2022-10-09T07:18:48.847Z,7.75
2022-10-09T07:21:16.287Z,7.60
2022-10-09T07:23:43.443Z,9.70
2022-10-09T07:26:33.361Z,9.00
2022-10-09T07:29:00.340Z,7.55
2022-10-09T07:31:27.003Z,8.90
2022-10-09T07:33:56.464Z,8.85
2022-10-09T07:36:23.533Z,9.55
2022-10-09T07:38:52.154Z,8.18
2022-10-09T07:41:19.155Z,9.10
2022-10-09T07:43:45.934Z,8.52
2022-10-09T07:46:17.896Z,8.77
2022-10-09T07:48:45.717Z,8.80
2022-10-09T07:51:22.270Z,8.30
2022-10-09T07:53:48.759Z,8.80
2022-10-09T07:56:18.131Z,8.13
2022-10-09T07:58:55.396Z,7.95
2022-10-09T08:01:23.444Z,7.68
2022-10-09T08:03:51.365Z,6.75
2022-10-09T08:06:18.808Z,5.95
2022-10-09T08:08:48.737Z,5.63
2022-10-09T08:11:17.304Z,5.22
2022-10-09T08:13:45.356Z,7.35
2022-10-09T08:16:12.387Z,9.10
2022-10-09T08:18:39.148Z,5.40
2022-10-09T08:21:08.363Z,3.70
2022-10-09T08:23:36.119Z,3.10
2022-10-09T08:26:03.689Z,5.72
2022-10-09T08:28:30.408Z,4.93
2022-10-09T08:30:57.058Z,4.50
2022-10-09T08:33:24.914Z,4.15
2022-10-09T08:35:53.178Z,4.32
2022-10-09T08:38:44.733Z,5.40
2022-10-09T08:41:11.804Z,5.63
2022-10-09T08:43:44.032Z,6.55
2022-10-09T08:46:24.002Z,7.28
2022-10-09T08:48:52.051Z,4.57
2022-10-09T08:51:28.409Z,3.35
2022-10-09T08:54:12.931Z,5.28
2022-10-09T08:56:39.448Z,4.53
2022-10-09T08:59:06.045Z,4.82
2022-10-09T09:01:39.733Z,5.65
2022-10-09T09:04:23.380Z,5.80
2022-10-09T09:07:28.418Z,3.45
2022-10-09T09:09:59.952Z,3.70
2022-10-09T09:12:42.940Z,2.85
2022-10-09T09:15:25.672Z,5.38
2022-10-09T09:17:52.080Z,4.05
2022-10-09T09:20:26.384Z,4.93
2022-10-09T09:22:52.940Z,3.15
2022-10-09T09:25:26.020Z,4.82
2022-10-09T09:27:53.931Z,6.60
2022-10-09T09:30:33.968Z,3.22
2022-10-09T09:33:16.611Z,3.75
2022-10-09T09:35:57.381Z,4.65
2022-10-09T09:38:23.863Z,4.22
2022-10-09T09:40:50.807Z,2.75
2022-10-09T09:43:22.911Z,3.22
2022-10-09T09:45:52.154Z,4.15
2022-10-09T09:48:31.027Z,4.13
2022-10-09T09:51:16.238Z,5.30
2022-10-09T09:53:57.675Z,4.05
2022-10-09T09:57:07.003Z,4.45
2022-10-09T09:59:29.817Z,6.65
2022-10-09T10:02:19.840Z,3.22
2022-10-09T10:04:57.403Z,4.70
2022-10-09T10:07:42.052Z,3.97
2022-10-09T10:10:25.640Z,4.38
2022-10-09T10:12:52.675Z,5.05
2022-10-09T10:15:30.995Z,3.78
2022-10-09T10:17:59.297Z,5.78
2022-10-09T10:20:27.643Z,4.25
2022-10-09T10:22:56.465Z,2.78
2022-10-09T10:25:28.760Z,3.70
2022-10-09T10:28:08.641Z,3.55
2022-10-09T10:30:37.564Z,3.38
2022-10-09T10:33:14.218Z,3.15
2022-10-09T10:35:43.421Z,4.32
2022-10-09T10:38:28.679Z,4.38
2022-10-09T10:41:22.354Z,4.63
2022-10-09T10:43:54.260Z,4.60
2022-10-09T10:46:26.767Z,3.72
2022-10-09T10:48:53.496Z,4.10
2022-10-09T10:51:35.209Z,4.68
2022-10-09T10:54:04.729Z,3.28
2022-10-09T10:56:35.795Z,3.53
2022-10-09T10:59:16.569Z,6.22
2022-10-09T11:02:07.640Z,4.28
2022-10-09T11:04:37.136Z,4.88
2022-10-09T11:07:06.655Z,4.93
2022-10-09T11:09:45.198Z,3.03
2022-10-09T11:12:47.717Z,2.08
2022-10-09T11:15:41.593Z,5.40
2022-10-09T11:18:19.856Z,3.67
2022-10-09T11:21:00.099Z,4.50
2022-10-09T11:23:47.731Z,5.88
2022-10-09T11:26:24.185Z,3.28
2022-10-09T11:29:06.204Z,5.70
2022-10-09T11:31:53.238Z,5.53
2022-10-09T11:34:25.863Z,6.07
2022-10-09T11:36:53.966Z,4.32
2022-10-09T11:39:23.765Z,4.28
2022-10-09T11:41:53.513Z,3.47
2022-10-09T11:44:49.479Z,3.33
2022-10-09T11:47:26.378Z,4.28
2022-10-09T11:50:18.343Z,5.47
2022-10-09T11:53:14.176Z,6.63
2022-10-09T11:55:40.776Z,3.55
2022-10-09T11:58:14.842Z,4.53
2022-10-09T12:00:42.678Z,4.30
2022-10-09T12:03:25.576Z,6.07
2022-10-09T12:05:52.205Z,3.53
2022-10-09T12:08:26.899Z,4.18
2022-10-09T12:10:57.776Z,3.35
2022-10-09T12:13:40.944Z,4.55
2022-10-09T12:16:10.487Z,5.18
2022-10-09T12:18:45.574Z,4.55
2022-10-09T12:21:37.992Z,5.53
2022-10-09T12:24:06.764Z,3.17
2022-10-09T12:26:34.471Z,4.65
2022-10-09T12:29:04.782Z,3.60
2022-10-09T12:31:38.699Z,3.22
2022-10-09T12:34:24.069Z,4.93
2022-10-09T12:36:50.599Z,4.22
2022-10-09T12:39:22.347Z,3.33
2022-10-09T12:41:57.303Z,6.10
2022-10-09T12:44:32.723Z,4.20
2022-10-09T12:47:03.902Z,2.08
2022-10-09T12:49:31.455Z,3.33
2022-10-09T12:51:59.697Z,2.47
2022-10-09T12:54:28.132Z,4.53
2022-10-09T12:56:57.220Z,4.65
2022-10-09T12:59:26.254Z,5.00
2022-10-09T13:01:57.704Z,4.05
2022-10-09T13:04:29.235Z,3.45
2022-10-09T13:06:57.992Z,4.40
2022-10-09T13:09:27.029Z,4.28
2022-10-09T13:11:58.427Z,4.57
2022-10-09T13:14:44.026Z,3.47
2022-10-09T13:20:24.728Z,3.67
2022-10-09T13:22:56.053Z,4.35
2022-10-09T13:25:34.088Z,3.42
2022-10-09T13:28:02.348Z,2.92
2022-10-09T13:30:29.315Z,2.45
2022-10-09T13:32:56.257Z,3.67
2022-10-09T13:35:23.094Z,4.53
2022-10-09T13:37:49.759Z,4.05
2022-10-09T13:40:20.744Z,4.97
2022-10-09T13:42:53.608Z,2.53
2022-10-09T13:45:20.282Z,3.42
2022-10-09T13:47:47.083Z,2.88
2022-10-09T13:50:15.178Z,3.15
2022-10-09T13:52:42.355Z,3.83
2022-10-09T13:55:09.662Z,3.47
2022-10-09T13:57:36.148Z,5.30
2022-10-09T14:00:03.098Z,2.60
2022-10-09T14:02:29.623Z,4.40
2022-10-09T14:04:56.091Z,3.20
2022-10-09T14:07:22.592Z,2.65
2022-10-09T14:09:49.086Z,4.22
2022-10-09T14:12:15.671Z,3.28
2022-10-09T14:14:42.155Z,4.07
2022-10-09T14:17:08.824Z,2.83
2022-10-09T14:19:35.428Z,2.92
2022-10-09T14:22:02.000Z,4.35
2022-10-09T14:24:28.469Z,1.90
2022-10-09T14:26:55.056Z,3.65
2022-10-09T14:29:21.547Z,4.32
2022-10-09T14:31:50.676Z,5.75
2022-10-09T14:34:17.163Z,3.28
2022-10-09T14:36:43.760Z,3.63
2022-10-09T14:39:10.366Z,2.90
2022-10-09T14:41:37.904Z,2.15
2022-10-09T14:44:05.037Z,4.43
2022-10-09T14:46:33.918Z,4.30
2022-10-09T14:49:07.029Z,5.05
2022-10-09T14:51:38.587Z,2.53
2022-10-09T14:54:06.582Z,3.67
2022-10-09T14:56:33.513Z,2.53
2022-10-09T14:59:01.098Z,3.90
2022-10-09T15:01:29.401Z,2.80
2022-10-09T15:03:56.343Z,6.72
2022-10-09T15:06:25.787Z,2.88
2022-10-09T15:08:55.987Z,5.90
2022-10-09T15:11:23.303Z,4.05
2022-10-09T15:13:49.840Z,3.80
2022-10-09T15:16:18.227Z,3.03
2022-10-09T15:18:46.367Z,3.75
2022-10-09T15:21:15.572Z,5.07
2022-10-09T15:23:42.261Z,4.05
2022-10-09T15:26:09.753Z,4.63
2022-10-09T15:28:37.798Z,5.47
2022-10-09T15:31:06.074Z,2.88
2022-10-09T15:33:33.490Z,2.67
2022-10-09T15:36:00.386Z,3.33
2022-10-09T15:38:26.931Z,3.47
2022-10-09T15:40:56.546Z,2.55
2022-10-09T15:43:25.797Z,3.65
2022-10-09T15:45:55.096Z,5.00
2022-10-09T15:48:24.032Z,5.00
2022-10-09T15:50:52.416Z,3.78
2022-10-09T15:53:21.900Z,6.35
2022-10-09T15:55:50.701Z,3.60
2022-10-09T15:58:18.011Z,3.53
2022-10-09T16:00:47.442Z,5.00
2022-10-09T16:03:15.508Z,4.57
2022-10-09T16:05:44.768Z,3.83
2022-10-09T16:08:11.697Z,2.90
2022-10-09T16:10:49.050Z,4.88
2022-10-09T16:13:16.487Z,4.32
2022-10-09T16:15:49.690Z,4.60
2022-10-09T16:18:18.464Z,3.13
2022-10-09T16:20:45.175Z,5.50
2022-10-09T16:23:12.491Z,5.57
2022-10-09T16:25:40.267Z,3.53
2022-10-09T16:28:09.047Z,3.72
2022-10-09T16:30:43.509Z,3.42
2022-10-09T16:33:12.837Z,2.70
2022-10-09T16:35:39.651Z,4.72
2022-10-09T16:38:06.377Z,3.58
2022-10-09T16:40:57.384Z,4.30
2022-10-09T16:43:20.189Z,4.20
2022-10-09T16:45:46.901Z,4.53
2022-10-09T16:48:13.533Z,4.00
2022-10-09T16:50:42.315Z,3.22
2022-10-09T16:53:09.394Z,3.67
2022-10-09T16:55:36.248Z,3.22
2022-10-09T16:58:02.826Z,5.43
2022-10-09T17:00:29.683Z,3.83
2022-10-09T17:02:56.782Z,4.18
2022-10-09T17:05:25.405Z,4.95
2022-10-09T17:07:52.277Z,5.65
2022-10-09T17:10:19.038Z,3.72
2022-10-09T17:12:45.538Z,6.53
2022-10-09T17:15:13.464Z,4.95
2022-10-09T17:17:40.110Z,3.53
2022-10-09T17:20:07.214Z,4.63
2022-10-09T17:22:33.718Z,4.38
2022-10-09T17:25:00.162Z,4.07
2022-10-09T17:27:26.616Z,4.88
2022-10-09T17:29:53.099Z,5.32
2022-10-09T17:32:19.612Z,6.03
2022-10-09T17:34:46.107Z,6.45
2022-10-09T17:37:13.395Z,5.00
2022-10-09T17:39:39.938Z,4.22
2022-10-09T17:42:06.432Z,5.85
2022-10-09T17:44:32.949Z,4.05
2022-10-09T17:47:00.860Z,4.80
2022-10-09T17:49:27.696Z,6.15
2022-10-09T17:51:54.548Z,5.70
2022-10-09T17:54:21.510Z,5.53
2022-10-09T17:56:48.294Z,5.40
2022-10-09T17:59:15.752Z,6.30
2022-10-09T18:01:42.630Z,7.40
2022-10-09T18:04:19.635Z,5.43
2022-10-09T18:06:46.218Z,4.78
2022-10-09T18:09:12.728Z,9.30
2022-10-09T18:11:39.240Z,5.82
2022-10-09T18:14:05.743Z,6.20
2022-10-09T18:16:36.760Z,5.25
2022-10-09T18:19:15.691Z,6.32
2022-10-09T18:21:47.239Z,7.65
2022-10-09T18:24:14.429Z,6.97
2022-10-09T18:26:41.506Z,6.00
2022-10-09T18:29:08.110Z,5.75
2022-10-09T18:31:34.929Z,6.72
2022-10-09T18:34:01.660Z,5.40
2022-10-09T18:36:34.154Z,5.60
2022-10-09T18:39:04.879Z,5.63
2022-10-09T18:41:31.910Z,5.57
2022-10-09T18:44:00.099Z,5.75
2022-10-09T18:46:30.264Z,5.57
2022-10-09T18:48:56.973Z,8.90
2022-10-09T18:51:25.989Z,8.32
2022-10-09T18:53:57.605Z,10.95
2022-10-09T18:56:24.365Z,9.82
2022-10-09T18:58:52.699Z,8.90
2022-10-09T19:01:19.714Z,10.82
2022-10-09T19:03:49.199Z,10.77
2022-10-09T19:06:18.055Z,11.32
2022-10-09T19:08:44.764Z,10.02
2022-10-09T19:11:14.233Z,9.68
2022-10-09T19:13:42.586Z,8.38
2022-10-09T19:16:09.876Z,8.65
2022-10-09T19:18:37.741Z,7.32
2022-10-09T19:21:04.632Z,10.98
2022-10-09T19:23:31.096Z,8.55
2022-10-09T19:25:59.366Z,10.88
2022-10-09T19:28:30.873Z,6.80
2022-10-09T19:30:57.674Z,6.00
2022-10-09T19:33:24.233Z,5.63
2022-10-09T19:35:53.568Z,8.52
2022-10-09T19:38:21.513Z,7.32
2022-10-09T19:40:49.120Z,5.57
2022-10-09T19:43:16.734Z,8.88
2022-10-09T19:45:43.388Z,9.13
2022-10-09T19:48:10.320Z,6.00
2022-10-09T19:50:44.406Z,7.75
2022-10-09T19:53:11.841Z,7.05
2022-10-09T19:55:38.776Z,6.72
2022-10-09T19:58:05.453Z,9.00
2022-10-09T20:00:32.064Z,7.18
2022-10-09T20:02:58.707Z,9.10
2022-10-09T20:05:25.252Z,5.93
2022-10-09T20:07:52.187Z,7.72
2022-10-09T20:10:18.895Z,5.72
2022-10-09T20:12:45.353Z,8.20
2022-10-09T20:15:11.898Z,6.28
2022-10-09T20:17:38.355Z,7.10
2022-10-09T20:20:06.238Z,6.70
2022-10-09T20:22:32.717Z,6.43
2022-10-09T20:24:59.305Z,6.55
2022-10-09T20:27:25.867Z,6.80
2022-10-09T20:29:53.083Z,7.60
2022-10-09T20:32:19.698Z,8.23
2022-10-09T20:34:46.224Z,7.78
2022-10-09T20:37:12.836Z,8.30
2022-10-09T20:39:39.377Z,7.00
2022-10-09T20:42:05.951Z,8.00
2022-10-09T20:44:32.510Z,6.93
2022-10-09T20:46:59.140Z,7.97
2022-10-09T20:49:25.654Z,7.32
2022-10-09T20:51:53.175Z,8.55
2022-10-09T20:54:21.765Z,6.38
2022-10-09T20:56:49.553Z,7.63
2022-10-09T20:59:17.164Z,7.43
2022-10-09T21:01:44.053Z,5.35
2022-10-09T21:04:12.127Z,5.70
2022-10-09T21:06:38.778Z,6.85
2022-10-09T21:09:05.481Z,6.70
2022-10-09T21:11:34.474Z,5.60
2022-10-09T21:14:01.804Z,6.43
2022-10-09T21:16:28.323Z,6.70
2022-10-09T21:19:00.848Z,6.22
2022-10-09T21:21:28.951Z,8.00
2022-10-09T21:23:57.250Z,8.43
2022-10-09T21:26:24.892Z,7.82
2022-10-09T21:28:55.556Z,6.85
2022-10-09T21:31:28.324Z,5.57
2022-10-09T21:33:55.027Z,7.35
2022-10-09T21:39:36.373Z,7.32
2022-10-09T21:42:03.042Z,6.97
2022-10-09T21:44:30.052Z,7.60
2022-10-09T21:46:56.678Z,6.88
2022-10-09T21:49:25.953Z,7.03
2022-10-09T21:51:53.173Z,7.22
2022-10-09T21:54:20.585Z,9.75
2022-10-09T21:56:47.433Z,6.45
2022-10-09T21:59:13.967Z,10.77
2022-10-09T22:01:40.483Z,7.65
2022-10-09T22:04:06.942Z,8.02
2022-10-09T22:06:33.431Z,7.28
2022-10-09T22:08:59.945Z,7.47
2022-10-09T22:11:26.522Z,6.85
2022-10-09T22:13:54.583Z,8.02
2022-10-09T22:16:21.100Z,6.55
2022-10-09T22:18:47.563Z,6.43
2022-10-09T22:21:15.125Z,5.68
2022-10-09T22:23:42.576Z,7.63
2022-10-09T22:26:13.420Z,6.65
2022-10-09T22:28:40.018Z,7.70
2022-10-09T22:31:16.840Z,6.53
2022-10-09T22:33:44.087Z,7.07
2022-10-09T22:36:17.596Z,7.30
2022-10-09T22:38:45.561Z,6.03
2022-10-09T22:41:18.084Z,5.68
2022-10-09T22:43:46.789Z,6.65
2022-10-09T22:46:15.864Z,6.63
2022-10-09T22:48:43.156Z,6.18
2022-10-09T22:51:12.542Z,6.88
2022-10-09T22:53:40.021Z,6.47
2022-10-09T22:56:08.591Z,7.75
2022-10-09T22:58:35.237Z,5.30
